Station: EBLG - 29/05/2017 09:20Z (il y a 10 minutes)
EBLG 290920Z 19010KT CAVOK 27/15 Q1012 NOSIG
Vent du 190º - 10 kt
Visibilité > 10 km et plafond haut ou pas de nuages significatifs
Température: +27ºC - Point de rosée: +15ºC - QNH: 1012 hPa
Pas de changement significatif prévu dans les 2 heures qui suivent l'observation